createdAt,value
2022-09-15T00:01:04.986Z,99396.50
2022-09-15T00:03:32.377Z,99389.22
2022-09-15T00:05:59.830Z,99360.94
2022-09-15T00:08:27.450Z,99316.84
2022-09-15T00:11:05.996Z,99321.78
2022-09-15T00:13:34.868Z,99318.53
2022-09-15T00:16:02.661Z,99322.75
2022-09-15T00:18:30.533Z,99328.19
2022-09-15T00:20:57.663Z,99336.50
2022-09-15T00:23:25.149Z,99330.75
2022-09-15T00:25:53.664Z,99356.16
2022-09-15T00:28:22.733Z,99354.97
2022-09-15T00:30:52.445Z,99360.94
2022-09-15T00:33:22.461Z,99342.44
2022-09-15T00:35:51.268Z,99369.72
2022-09-15T00:38:19.461Z,99383.63
2022-09-15T00:40:48.941Z,99399.75
2022-09-15T00:43:18.143Z,99414.50
2022-09-15T00:45:45.639Z,99410.91
2022-09-15T00:48:16.477Z,99430.25
2022-09-15T00:50:49.964Z,99434.84
2022-09-15T00:53:17.903Z,99423.00
2022-09-15T00:55:48.774Z,99434.84
2022-09-15T00:58:23.028Z,99437.22
2022-09-15T01:01:00.610Z,99436.87
2022-09-15T01:03:30.552Z,99428.38
2022-09-15T01:06:16.108Z,99432.97
2022-09-15T01:08:50.142Z,99440.94
2022-09-15T01:11:17.679Z,99433.50
2022-09-15T01:13:44.790Z,99445.37
2022-09-15T01:16:24.338Z,99442.31
2022-09-15T01:18:57.166Z,99451.81
2022-09-15T01:21:40.834Z,99462.41
2022-09-15T01:24:34.701Z,99458.53
2022-09-15T01:27:30.937Z,99465.88
2022-09-15T01:30:24.508Z,99461.28
2022-09-15T01:33:06.652Z,99465.88
2022-09-15T01:35:58.179Z,99462.31
2022-09-15T01:39:09.680Z,99458.06
2022-09-15T01:41:59.300Z,99456.84
2022-09-15T01:44:29.162Z,99459.75
2022-09-15T01:47:00.026Z,99464.69
2022-09-15T01:49:36.230Z,99459.09
2022-09-15T01:52:03.776Z,99465.34
2022-09-15T01:54:36.144Z,99465.34
2022-09-15T01:57:03.603Z,99459.59
2022-09-15T01:59:30.824Z,99459.94
2022-09-15T02:02:01.977Z,99454.13
2022-09-15T02:04:29.713Z,99439.72
2022-09-15T02:07:06.409Z,99450.78
2022-09-15T02:09:49.358Z,99457.34
2022-09-15T02:12:39.794Z,99456.16
2022-09-15T02:15:10.989Z,99447.03
2022-09-15T02:17:43.573Z,99445.69
2022-09-15T02:20:15.627Z,99441.41
2022-09-15T02:22:47.790Z,99435.50
2022-09-15T02:25:18.788Z,99451.38
2022-09-15T02:27:55.044Z,99435.13
2022-09-15T02:30:22.321Z,99437.66
2022-09-15T02:32:54.138Z,99438.00
2022-09-15T02:35:21.462Z,99430.37
2022-09-15T02:37:49.035Z,99429.19
2022-09-15T02:40:16.424Z,99439.00
2022-09-15T02:42:53.429Z,99444.94
2022-09-15T02:45:20.757Z,99439.34
2022-09-15T02:47:48.093Z,99439.00
2022-09-15T02:50:15.186Z,99429.69
2022-09-15T02:52:42.610Z,99418.47
2022-09-15T02:55:10.755Z,99415.09
2022-09-15T02:57:38.289Z,99422.56
2022-09-15T03:00:12.984Z,99422.88
2022-09-15T03:02:50.232Z,99437.47
2022-09-15T03:05:19.915Z,99429.84
2022-09-15T03:07:47.757Z,99426.09
2022-09-15T03:10:15.042Z,99429.66
2022-09-15T03:12:44.566Z,99435.44
2022-09-15T03:15:13.562Z,99427.63
2022-09-15T03:17:42.080Z,99436.97
2022-09-15T03:20:11.390Z,99431.38
2022-09-15T03:22:38.688Z,99415.09
2022-09-15T03:25:07.354Z,99414.97
2022-09-15T03:27:35.474Z,99422.09
2022-09-15T03:30:04.285Z,99432.22
2022-09-15T03:32:33.199Z,99425.62
2022-09-15T03:35:00.273Z,99430.72
2022-09-15T03:37:27.809Z,99430.03
2022-09-15T03:39:56.051Z,99433.09
2022-09-15T03:42:23.163Z,99438.25
2022-09-15T03:44:50.346Z,99438.41
2022-09-15T03:47:17.485Z,99441.94
2022-09-15T03:49:44.642Z,99440.91
2022-09-15T03:52:12.261Z,99446.69
2022-09-15T03:54:40.100Z,99448.72
2022-09-15T03:57:07.074Z,99452.81
2022-09-15T03:59:34.218Z,99451.28
2022-09-15T04:02:01.537Z,99450.28
2022-09-15T04:04:28.984Z,99444.34
2022-09-15T04:06:56.143Z,99449.78
2022-09-15T04:09:24.690Z,99449.25
2022-09-15T04:11:51.902Z,99442.66
2022-09-15T04:14:19.636Z,99453.50
2022-09-15T04:16:46.729Z,99454.00
2022-09-15T04:19:14.396Z,99459.44
2022-09-15T04:21:42.284Z,99465.69
2022-09-15T04:24:09.656Z,99460.28
2022-09-15T04:26:37.202Z,99454.84
2022-09-15T04:29:06.210Z,99445.69
2022-09-15T04:31:34.522Z,99448.22
2022-09-15T04:34:01.690Z,99445.69
2022-09-15T04:36:29.437Z,99445.00
2022-09-15T04:38:56.932Z,99454.50
2022-09-15T04:41:25.700Z,99465.34
2022-09-15T04:43:53.188Z,99458.25
2022-09-15T04:46:20.856Z,99461.63
2022-09-15T04:48:48.854Z,99443.50
2022-09-15T04:51:19.363Z,99452.13
2022-09-15T04:53:47.096Z,99455.34
2022-09-15T04:56:23.382Z,99454.00
2022-09-15T04:58:58.349Z,99449.25
2022-09-15T05:01:32.205Z,99462.47
2022-09-15T05:04:01.493Z,99457.56
2022-09-15T05:06:29.196Z,99473.31
2022-09-15T05:08:57.619Z,99472.12
2022-09-15T05:11:25.717Z,99465.00
2022-09-15T05:13:53.145Z,99463.97
2022-09-15T05:16:25.728Z,99466.69
2022-09-15T05:18:54.258Z,99467.37
2022-09-15T05:21:23.042Z,99482.28
2022-09-15T05:23:52.043Z,99484.31
2022-09-15T05:26:22.314Z,99473.63
2022-09-15T05:28:49.488Z,99473.28
2022-09-15T05:31:22.208Z,99493.62
2022-09-15T05:33:50.008Z,99499.91
2022-09-15T05:36:19.277Z,99501.47
2022-09-15T05:38:46.436Z,99495.84
2022-09-15T05:41:18.640Z,99489.72
2022-09-15T05:43:47.031Z,99507.06
2022-09-15T05:46:14.803Z,99507.22
2022-09-15T05:48:42.271Z,99517.94
2022-09-15T05:51:14.047Z,99528.28
2022-09-15T05:53:42.224Z,99523.00
2022-09-15T05:56:14.173Z,99522.66
2022-09-15T05:58:43.788Z,99525.69
2022-09-15T06:01:23.875Z,99536.06
2022-09-15T06:03:51.879Z,99528.87
2022-09-15T06:06:19.339Z,99515.44
2022-09-15T06:08:51.925Z,99515.44
2022-09-15T06:11:25.161Z,99510.81
2022-09-15T06:13:52.847Z,99515.88
2022-09-15T06:16:22.677Z,99525.06
2022-09-15T06:18:52.243Z,99524.53
2022-09-15T06:21:22.302Z,99510.38
2022-09-15T06:23:57.034Z,99516.16
2022-09-15T06:26:25.125Z,99515.94
2022-09-15T06:28:57.308Z,99519.22
2022-09-15T06:31:25.928Z,99507.47
2022-09-15T06:33:55.841Z,99530.34
2022-09-15T06:36:26.126Z,99527.50
2022-09-15T06:38:54.144Z,99538.97
2022-09-15T06:41:21.169Z,99545.22
2022-09-15T06:43:49.315Z,99537.09
2022-09-15T06:46:22.654Z,99534.06
2022-09-15T06:48:51.303Z,99540.97
2022-09-15T06:51:21.266Z,99519.72
2022-09-15T06:53:49.163Z,99526.56
2022-09-15T06:56:22.238Z,99535.41
2022-09-15T06:58:49.546Z,99535.87
2022-09-15T07:01:22.666Z,99548.22
2022-09-15T07:03:50.375Z,99549.88
2022-09-15T07:06:17.897Z,99547.31
2022-09-15T07:08:46.627Z,99548.97
2022-09-15T07:11:14.207Z,99550.31
2022-09-15T07:13:42.336Z,99557.56
2022-09-15T07:16:12.603Z,99549.75
2022-09-15T07:18:43.064Z,99557.47
2022-09-15T07:21:16.751Z,99566.87
2022-09-15T07:23:44.472Z,99567.16
2022-09-15T07:26:13.954Z,99568.88
2022-09-15T07:28:42.375Z,99549.38
2022-09-15T07:31:11.122Z,99564.25
2022-09-15T07:33:38.349Z,99551.50
2022-09-15T07:36:07.725Z,99535.50
2022-09-15T07:38:38.760Z,99539.81
2022-09-15T07:41:07.148Z,99531.56
2022-09-15T07:43:34.387Z,99524.44
2022-09-15T07:46:02.332Z,99516.34
2022-09-15T07:48:29.768Z,99516.44
2022-09-15T07:50:57.139Z,99508.09
2022-09-15T07:53:24.348Z,99518.69
2022-09-15T07:55:55.223Z,99499.75
2022-09-15T07:58:22.783Z,99503.72
2022-09-15T08:00:50.166Z,99500.94
2022-09-15T08:03:17.364Z,99508.97
2022-09-15T08:05:45.875Z,99512.31
2022-09-15T08:08:13.275Z,99511.91
2022-09-15T08:10:41.407Z,99481.53
2022-09-15T08:13:08.908Z,99506.22
2022-09-15T08:15:37.570Z,99490.06
2022-09-15T08:18:05.826Z,99475.09
2022-09-15T08:20:33.391Z,99457.72
2022-09-15T08:23:01.213Z,99450.75
2022-09-15T08:25:28.877Z,99445.53
2022-09-15T08:27:56.437Z,99453.78
2022-09-15T08:30:29.004Z,99425.97
2022-09-15T08:32:56.699Z,99454.47
2022-09-15T08:35:24.500Z,99459.63
2022-09-15T08:37:54.142Z,99430.97
2022-09-15T08:40:24.006Z,99440.72
2022-09-15T08:42:59.379Z,99438.69
2022-09-15T08:45:42.417Z,99420.88
2022-09-15T08:48:19.035Z,99432.34
2022-09-15T08:50:49.554Z,99423.56
2022-09-15T08:53:28.058Z,99419.47
2022-09-15T08:55:57.233Z,99413.22
2022-09-15T08:58:26.709Z,99405.87
2022-09-15T09:01:11.478Z,99407.94
2022-09-15T09:03:57.918Z,99429.81
2022-09-15T09:06:44.906Z,99417.09
2022-09-15T09:09:20.007Z,99391.63
2022-09-15T09:11:56.140Z,99403.16
2022-09-15T09:14:49.647Z,99413.44
2022-09-15T09:17:35.140Z,99402.84
2022-09-15T09:20:24.355Z,99393.22
2022-09-15T09:22:54.229Z,99379.75
2022-09-15T09:25:27.684Z,99399.25
2022-09-15T09:27:58.192Z,99391.59
2022-09-15T09:30:27.949Z,99380.00
2022-09-15T09:33:23.195Z,99370.66
2022-09-15T09:35:53.005Z,99352.63
2022-09-15T09:38:26.820Z,99371.50
2022-09-15T09:40:56.603Z,99363.69
2022-09-15T09:43:28.869Z,99365.00
2022-09-15T09:45:56.517Z,99370.91
2022-09-15T09:48:27.997Z,99363.09
2022-09-15T09:50:56.167Z,99368.44
2022-09-15T09:53:23.552Z,99361.09
2022-09-15T09:55:50.866Z,99340.53
2022-09-15T09:58:20.967Z,99333.56
2022-09-15T10:00:48.972Z,99330.09
2022-09-15T10:03:28.020Z,99343.47
2022-09-15T10:06:19.538Z,99353.56
2022-09-15T10:09:05.106Z,99342.44
2022-09-15T10:11:41.362Z,99337.41
2022-09-15T10:14:20.424Z,99327.84
2022-09-15T10:17:13.819Z,99309.94
2022-09-15T10:19:46.924Z,99312.41
2022-09-15T10:22:32.083Z,99334.59
2022-09-15T10:25:01.128Z,99314.56
2022-09-15T10:27:29.826Z,99300.87
2022-09-15T10:29:59.780Z,99296.16
2022-09-15T10:32:30.265Z,99299.81
2022-09-15T10:35:01.905Z,99298.19
2022-09-15T10:37:43.877Z,99295.44
2022-09-15T10:40:25.148Z,99302.75
2022-09-15T10:42:54.119Z,99293.19
2022-09-15T10:45:34.383Z,99293.81
2022-09-15T10:48:17.656Z,99280.72
2022-09-15T10:50:52.131Z,99284.19
2022-09-15T10:53:28.169Z,99286.31
2022-09-15T10:56:21.807Z,99286.47
2022-09-15T10:59:00.847Z,99296.56
2022-09-15T11:01:28.141Z,99292.41
2022-09-15T11:04:29.513Z,99282.06
2022-09-15T11:07:08.128Z,99294.72
2022-09-15T11:09:51.629Z,99290.81
2022-09-15T11:12:59.584Z,99296.59
2022-09-15T11:15:38.660Z,99299.06
2022-09-15T11:18:06.154Z,99294.06
2022-09-15T11:21:06.138Z,99297.56
2022-09-15T11:23:34.312Z,99290.13
2022-09-15T11:26:07.532Z,99284.28
2022-09-15T11:28:58.000Z,99272.41
2022-09-15T11:31:29.762Z,99285.50
2022-09-15T11:34:02.279Z,99245.75
2022-09-15T11:36:32.473Z,99292.00
2022-09-15T11:39:21.694Z,99304.00
2022-09-15T11:41:56.481Z,99310.66
2022-09-15T11:44:30.520Z,99296.88
2022-09-15T11:47:16.681Z,99293.88
2022-09-15T11:50:09.262Z,99286.22
2022-09-15T11:52:57.808Z,99264.59
2022-09-15T11:55:42.684Z,99257.56
2022-09-15T11:58:24.830Z,99254.44
2022-09-15T12:01:10.634Z,99259.09
2022-09-15T12:03:48.424Z,99254.13
2022-09-15T12:06:18.844Z,99259.00
2022-09-15T12:09:00.906Z,99264.75
2022-09-15T12:11:32.930Z,99297.53
2022-09-15T12:14:00.267Z,99357.75
2022-09-15T12:16:27.855Z,99398.66
2022-09-15T12:19:37.295Z,99397.72
2022-09-15T12:22:28.991Z,99445.25
2022-09-15T12:25:01.138Z,99468.72
2022-09-15T12:27:29.499Z,99432.09
2022-09-15T12:29:59.918Z,99393.00
2022-09-15T12:32:35.043Z,99393.22
2022-09-15T12:35:06.459Z,99390.28
2022-09-15T12:37:49.292Z,99412.00
2022-09-15T12:40:39.237Z,99426.53
2022-09-15T12:43:16.006Z,99438.13
2022-09-15T12:45:52.535Z,99431.03
2022-09-15T12:48:46.706Z,99448.47
2022-09-15T12:51:22.847Z,99444.00
2022-09-15T12:53:54.759Z,99449.78
2022-09-15T12:56:29.984Z,99456.88
2022-09-15T12:59:06.521Z,99448.34
2022-09-15T13:01:43.570Z,99430.09
2022-09-15T13:04:44.023Z,99408.66
2022-09-15T13:07:19.906Z,99415.25
2022-09-15T13:09:56.067Z,99393.78
2022-09-15T13:12:26.593Z,99394.00
2022-09-15T13:14:54.740Z,99387.12
2022-09-15T13:17:25.989Z,99395.31
2022-09-15T13:19:56.066Z,99389.34
2022-09-15T13:22:27.188Z,99385.78
2022-09-15T13:25:03.780Z,99379.25
2022-09-15T13:27:55.183Z,99381.66
2022-09-15T13:30:43.648Z,99366.28
2022-09-15T13:40:09.646Z,99367.41
2022-09-15T13:43:01.169Z,99358.19
2022-09-15T13:45:50.645Z,99358.03
2022-09-15T13:48:51.650Z,99357.81
2022-09-15T13:51:29.611Z,99363.63
2022-09-15T13:54:07.045Z,99368.63
2022-09-15T13:56:38.528Z,99358.56
2022-09-15T13:59:14.122Z,99349.44
2022-09-15T14:01:42.569Z,99355.56
2022-09-15T14:04:16.780Z,99362.31
2022-09-15T14:06:46.137Z,99374.25
2022-09-15T14:09:15.153Z,99376.59
2022-09-15T14:11:42.871Z,99382.16
2022-09-15T14:14:27.587Z,99387.91
2022-09-15T14:16:59.522Z,99387.06
2022-09-15T14:19:36.646Z,99388.59
2022-09-15T14:22:29.001Z,99378.44
2022-09-15T14:24:57.309Z,99358.31
2022-09-15T14:27:29.737Z,99361.97
2022-09-15T14:30:02.573Z,99347.88
2022-09-15T14:32:31.657Z,99340.06
2022-09-15T14:34:59.220Z,99348.53
2022-09-15T14:37:31.660Z,99356.03
2022-09-15T14:40:01.591Z,99345.50
2022-09-15T14:42:31.092Z,99357.06
2022-09-15T14:48:06.637Z,99365.72
2022-09-15T14:50:33.994Z,99350.03
2022-09-15T14:53:04.905Z,99358.00
2022-09-15T14:55:53.973Z,99347.22
2022-09-15T14:58:27.847Z,99358.94
2022-09-15T15:01:13.939Z,99357.06
2022-09-15T15:03:53.031Z,99359.09
2022-09-15T15:06:36.310Z,99372.03
2022-09-15T15:09:18.483Z,99377.41
2022-09-15T15:11:45.919Z,99374.03
2022-09-15T15:14:13.669Z,99373.06
2022-09-15T15:16:52.384Z,99369.19
2022-09-15T15:19:34.465Z,99362.06
2022-09-15T15:22:13.678Z,99351.66
2022-09-15T15:24:47.439Z,99356.69
2022-09-15T15:27:24.276Z,99332.81
2022-09-15T15:29:51.843Z,99311.66
2022-09-15T15:32:22.814Z,99328.16
2022-09-15T15:35:00.176Z,99350.34
2022-09-15T15:37:28.649Z,99366.03
2022-09-15T15:40:01.434Z,99340.06
2022-09-15T15:42:29.223Z,99329.38
2022-09-15T15:45:09.657Z,99338.19
2022-09-15T15:47:37.133Z,99338.19
2022-09-15T15:50:13.983Z,99338.50
2022-09-15T15:52:42.400Z,99338.69
2022-09-15T15:55:14.340Z,99326.53
2022-09-15T15:57:45.919Z,99332.47
2022-09-15T16:00:40.933Z,99335.59
2022-09-15T16:03:11.478Z,99332.09
2022-09-15T16:05:39.992Z,99329.59
2022-09-15T16:08:31.308Z,99335.16
2022-09-15T16:11:02.377Z,99332.59
2022-09-15T16:13:30.097Z,99339.47
2022-09-15T16:15:58.148Z,99357.62
2022-09-15T16:18:25.413Z,99354.09
2022-09-15T16:20:52.806Z,99356.00
2022-09-15T16:23:22.768Z,99357.56
2022-09-15T16:26:02.049Z,99355.91
2022-09-15T16:28:29.315Z,99355.81
2022-09-15T16:30:57.110Z,99330.94
2022-09-15T16:33:25.007Z,99324.91
2022-09-15T16:36:08.619Z,99331.28
2022-09-15T16:38:36.122Z,99344.97
2022-09-15T16:41:04.720Z,99341.41
2022-09-15T16:43:31.668Z,99334.62
2022-09-15T16:45:58.471Z,99350.41
2022-09-15T16:48:25.540Z,99349.56
2022-09-15T16:53:39.860Z,99345.25
2022-09-15T16:56:10.000Z,99327.12
2022-09-15T16:58:39.974Z,99350.03
2022-09-15T17:01:07.974Z,99341.81
2022-09-15T17:03:34.823Z,99338.37
2022-09-15T17:06:02.180Z,99353.34
2022-09-15T17:08:31.352Z,99352.72
2022-09-15T17:11:05.516Z,99355.75
2022-09-15T17:13:34.346Z,99361.56
2022-09-15T17:16:02.129Z,99359.38
2022-09-15T17:18:29.532Z,99357.59
2022-09-15T17:20:56.792Z,99361.31
2022-09-15T17:23:24.698Z,99348.75
2022-09-15T17:25:53.357Z,99345.75
2022-09-15T17:28:22.510Z,99338.09
2022-09-15T17:30:51.963Z,99337.56
2022-09-15T17:33:20.142Z,99333.50
2022-09-15T17:35:52.565Z,99333.31
2022-09-15T17:38:21.611Z,99331.81
2022-09-15T17:40:49.824Z,99333.59
2022-09-15T17:43:22.225Z,99333.91
2022-09-15T17:45:50.039Z,99333.62
2022-09-15T17:48:17.306Z,99341.88
2022-09-15T17:50:45.381Z,99338.59
2022-09-15T17:53:14.933Z,99336.34
2022-09-15T17:55:42.089Z,99346.59
2022-09-15T17:58:09.569Z,99346.28
2022-09-15T18:00:37.808Z,99352.72
2022-09-15T18:03:27.891Z,99345.94
2022-09-15T18:05:56.577Z,99351.97
2022-09-15T18:08:23.406Z,99352.94
2022-09-15T18:10:50.790Z,99346.28
2022-09-15T18:13:23.493Z,99340.22
2022-09-15T18:15:50.660Z,99337.31
2022-09-15T18:18:20.108Z,99333.91
2022-09-15T18:20:48.121Z,99341.53
2022-09-15T18:23:17.190Z,99333.38
2022-09-15T18:25:44.793Z,99339.31
2022-09-15T18:28:12.115Z,99340.50
2022-09-15T18:30:40.954Z,99336.44
2022-09-15T18:33:28.056Z,99341.53
2022-09-15T18:35:58.907Z,99338.16
2022-09-15T18:38:26.512Z,99348.69
2022-09-15T18:40:55.904Z,99348.00
2022-09-15T18:43:25.187Z,99348.34
2022-09-15T18:45:54.775Z,99342.56
2022-09-15T18:48:21.629Z,99345.09
2022-09-15T18:50:48.496Z,99344.94
2022-09-15T18:53:15.406Z,99331.53
2022-09-15T18:55:42.625Z,99336.13
2022-09-15T18:58:10.258Z,99333.75
2022-09-15T19:00:37.563Z,99336.31
2022-09-15T19:03:06.162Z,99354.13
2022-09-15T19:05:33.401Z,99349.03
2022-09-15T19:08:01.638Z,99340.06
2022-09-15T19:10:29.256Z,99353.28
2022-09-15T19:12:56.061Z,99364.00
2022-09-15T19:15:24.162Z,99363.47
2022-09-15T19:17:51.146Z,99370.41
2022-09-15T19:20:18.872Z,99383.28
2022-09-15T19:22:46.352Z,99390.59
2022-09-15T19:25:13.708Z,99395.31
2022-09-15T19:27:41.269Z,99392.06
2022-09-15T19:30:12.582Z,99394.78
2022-09-15T19:32:40.695Z,99401.56
2022-09-15T19:35:08.910Z,99382.59
2022-09-15T19:37:37.991Z,99408.56
2022-09-15T19:40:09.027Z,99403.97
2022-09-15T19:42:38.157Z,99408.03
2022-09-15T19:45:06.140Z,99398.69
2022-09-15T19:47:32.962Z,99403.25
2022-09-15T19:50:00.041Z,99412.59
2022-09-15T19:52:33.516Z,99421.56
2022-09-15T19:55:00.451Z,99409.66
2022-09-15T19:57:27.310Z,99405.25
2022-09-15T19:59:54.722Z,99408.13
2022-09-15T20:02:22.258Z,99412.59
2022-09-15T20:04:50.390Z,99397.31
2022-09-15T20:07:17.366Z,99414.09
2022-09-15T20:09:44.792Z,99416.13
2022-09-15T20:12:11.801Z,99418.84
2022-09-15T20:14:38.753Z,99415.13
2022-09-15T20:17:05.593Z,99415.09
2022-09-15T20:19:32.687Z,99415.28
2022-09-15T20:21:59.554Z,99410.72
2022-09-15T20:24:26.408Z,99406.16
2022-09-15T20:26:53.271Z,99407.19
2022-09-15T20:29:20.520Z,99409.75
2022-09-15T20:31:47.619Z,99416.03
2022-09-15T20:34:14.459Z,99421.28
2022-09-15T20:36:41.320Z,99431.28
2022-09-15T20:39:13.038Z,99425.38
2022-09-15T20:41:41.705Z,99427.03
2022-09-15T20:44:11.687Z,99426.34
2022-09-15T20:46:38.624Z,99431.09
2022-09-15T20:49:06.062Z,99413.63
2022-09-15T20:51:33.785Z,99418.91
2022-09-15T20:54:02.105Z,99409.22
2022-09-15T20:56:30.207Z,99408.19
2022-09-15T20:58:58.965Z,99397.84
2022-09-15T21:01:32.323Z,99422.28
2022-09-15T21:03:59.312Z,99432.62
2022-09-15T21:06:27.045Z,99438.56
2022-09-15T21:08:55.624Z,99449.06
2022-09-15T21:11:23.966Z,99450.94
2022-09-15T21:13:50.919Z,99450.59
2022-09-15T21:16:20.602Z,99467.75
2022-09-15T21:18:48.680Z,99470.97
2022-09-15T21:21:29.798Z,99474.38
2022-09-15T21:24:03.800Z,99465.03
2022-09-15T21:26:59.987Z,99455.03
2022-09-15T21:29:27.829Z,99470.13
2022-09-15T21:31:55.879Z,99482.16
2022-09-15T21:34:23.246Z,99474.34
2022-09-15T21:36:53.796Z,99494.19
2022-09-15T21:39:20.825Z,99488.09
2022-09-15T21:41:47.619Z,99485.88
2022-09-15T21:44:14.499Z,99482.66
2022-09-15T21:46:41.300Z,99483.50
2022-09-15T21:49:08.552Z,99488.06
2022-09-15T21:51:36.285Z,99488.78
2022-09-15T21:54:03.128Z,99499.25
2022-09-15T21:56:30.291Z,99499.41
2022-09-15T21:58:57.588Z,99502.12
2022-09-15T22:01:27.993Z,99519.91
2022-09-15T22:03:59.061Z,99517.75
2022-09-15T22:06:31.866Z,99530.13
2022-09-15T22:09:22.088Z,99524.47
2022-09-15T22:11:49.394Z,99526.66
2022-09-15T22:14:16.382Z,99546.34
2022-09-15T22:16:43.290Z,99540.91
2022-09-15T22:19:11.156Z,99549.06
2022-09-15T22:21:41.547Z,99556.81
2022-09-15T22:24:10.788Z,99553.75
2022-09-15T22:26:38.485Z,99562.53
2022-09-15T22:29:06.413Z,99569.69
2022-09-15T22:31:35.035Z,99575.63
2022-09-15T22:34:02.279Z,99572.72
2022-09-15T22:36:30.601Z,99582.56
2022-09-15T22:39:05.224Z,99585.59
2022-09-15T22:41:39.447Z,99586.44
2022-09-15T22:44:07.480Z,99586.06
2022-09-15T22:46:34.585Z,99587.22
2022-09-15T22:49:01.925Z,99582.47
2022-09-15T22:51:28.863Z,99576.72
2022-09-15T22:53:57.337Z,99578.72
2022-09-15T22:56:26.221Z,99582.22
2022-09-15T22:58:54.393Z,99593.84
2022-09-15T23:01:28.172Z,99602.84
2022-09-15T23:04:00.271Z,99611.47
2022-09-15T23:06:29.369Z,99616.75
2022-09-15T23:08:58.423Z,99597.75
2022-09-15T23:11:26.974Z,99609.78
2022-09-15T23:13:54.104Z,99617.88
2022-09-15T23:16:21.983Z,99617.31
2022-09-15T23:18:50.103Z,99613.94
2022-09-15T23:21:16.969Z,99602.75
2022-09-15T23:23:45.311Z,99619.63
2022-09-15T23:26:15.156Z,99608.72
2022-09-15T23:28:42.224Z,99626.84
2022-09-15T23:31:11.856Z,99633.31
2022-09-15T23:33:39.862Z,99639.03
2022-09-15T23:36:08.463Z,99642.94
2022-09-15T23:38:36.769Z,99639.00
2022-09-15T23:41:04.227Z,99636.97
2022-09-15T23:43:33.116Z,99631.25
2022-09-15T23:46:00.584Z,99628.19
2022-09-15T23:48:27.874Z,99636.00
2022-09-15T23:50:54.866Z,99644.34
2022-09-15T23:53:21.702Z,99642.81
2022-09-15T23:55:48.650Z,99643.63
2022-09-15T23:58:15.785Z,99640.22
